Time;durP1;ratioP1;P1;durP2;ratioP2;P2;SDS_P1;SDS_P2;PMS_P1;PMS_P2;Temp;Humidity;BMP_temperature;BMP_pressure;BME280_temperature;BME280_humidity;BME280_pressure;Samples;Min_cycle;Max_cycle;Signal;HPM_P1;HPM_P2
2022/08/31 00:05:53;;;;;;;;;;;;;;;;;;5093247;28;19922;-48
2022/08/31 00:08:18;;;;;;;;;;;;;;;22.89;76.17;98854.56;5091899;28;20002;-48
2022/08/31 00:10:46;;;;;;;;;;;;;;;22.70;77.32;98854.41;5092132;28;19958;-48
2022/08/31 00:13:12;;;;;;;;;;;;;;;22.56;77.05;98848.88;5092929;28;19912;-47
2022/08/31 00:15:37;;;;;;;;;;;;;;;22.53;77.87;98850.19;5091799;28;19965;-47
2022/08/31 00:18:03;;;;;;;;;;;;;;;22.58;77.01;98843.22;5093060;28;19912;-49
2022/08/31 00:20:29;;;;;;;;;;;;;;;22.57;76.72;98845.09;5091609;28;19977;-49
2022/08/31 00:22:54;;;;;;;;;;;;;;;22.53;77.43;98844.84;5092915;28;19919;-49
2022/08/31 00:25:20;;;;;;;;;;;;;;;22.57;78.40;98844.31;5092815;28;19923;-49
2022/08/31 00:27:45;;;;;;;;;;;;;;;22.64;77.97;98850.97;5092896;28;19912;-48
2022/08/31 00:30:11;;;;;;;;;;;;;;;22.63;77.20;98848.56;5091113;28;20003;-50
2022/08/31 00:32:37;;;;;;;;;;;;;;;22.70;77.62;98855.22;5092700;28;20448;-49
2022/08/31 00:35:03;;;;;;;;;;;;;;;22.79;76.52;98844.72;5091435;28;19912;-49
2022/08/31 00:37:28;;;;;;;;;;;;;;;22.79;76.47;98850.06;5092710;28;20206;-49
2022/08/31 00:39:54;;;;;;;;;;;;;;;22.76;74.72;98844.47;5091369;28;19912;-49
2022/08/31 00:42:19;;;;;;;;;;;;;;;22.62;74.40;98847.75;5092581;28;19916;-49
2022/08/31 00:44:44;;;;;;;;;;;;;;;22.52;75.11;98853.16;5092637;28;19919;-49
2022/08/31 00:47:10;;;;;;;;;;;;;;;22.57;75.90;98850.44;5091319;28;19912;-50
2022/08/31 00:49:38;;;;;;;;;;;;;;;22.65;76.31;98851.75;5092483;28;19966;-49
2022/08/31 00:52:07;;;;;;;;;;;;;;;22.77;75.71;98851.44;5092422;28;20404;-50
2022/08/31 00:54:40;;;;;;;;;;;;;;;22.92;75.74;98856.69;5092427;28;20006;-48
2022/08/31 00:57:07;;;;;;;;;;;;;;;22.94;74.84;98858.03;5092530;28;19920;-50
2022/08/31 00:59:33;;;;;;;;;;;;;;;23.03;74.85;98855.56;5092395;28;19943;-50
2022/08/31 01:01:59;;;;;;;;;;;;;;;23.07;73.58;98847.78;5092616;28;19951;-50
2022/08/31 01:04:25;;;;;;;;;;;;;;;23.01;73.54;98857.69;5092331;28;20293;-50
2022/08/31 01:06:51;;;;;;;;;;;;;;;22.92;72.30;98860.16;5092297;28;19919;-49
2022/08/31 01:09:17;;;;;;;;;;;;;;;22.80;72.46;98865.06;5092299;28;19935;-50
2022/08/31 01:11:43;;;;;;;;;;;;;;;22.76;72.91;98852.50;5092274;28;19958;-50
2022/08/31 01:14:09;;;;;;;;;;;;;;;22.72;73.01;98858.41;5092190;28;19912;-48
2022/08/31 01:16:47;;;;;;;;;;;;;;;22.73;73.04;98864.56;5092169;28;19916;-50
2022/08/31 01:19:26;;;;;;;;;;;;;;;22.78;73.04;98861.88;5092153;28;20007;-49
2022/08/31 01:21:58;;;;;;;;;;;;;;;22.85;73.17;98858.88;5092188;28;20002;-51
2022/08/31 01:24:25;;;;;;;;;;;;;;;22.93;73.43;98860.97;5090903;28;19912;-50
2022/08/31 01:26:52;;;;;;;;;;;;;;;23.03;73.46;98862.81;5090835;28;19912;-49
2022/08/31 01:29:17;;;;;;;;;;;;;;;23.05;73.87;98861.44;5090783;28;19915;-49
2022/08/31 01:31:45;;;;;;;;;;;;;;;22.93;73.88;98864.44;5091908;28;20409;-49
2022/08/31 01:34:11;;;;;;;;;;;;;;;22.88;73.89;98861.81;5091961;28;20007;-49
2022/08/31 01:36:38;;;;;;;;;;;;;;;22.96;74.08;98856.94;5092014;28;19943;-49
2022/08/31 01:39:04;;;;;;;;;;;;;;;23.07;73.28;98863.84;5092002;28;19935;-49
2022/08/31 01:41:30;;;;;;;;;;;;;;;23.19;73.03;98861.63;5092360;28;19935;-50
2022/08/31 01:43:56;;;;;;;;;;;;;;;23.28;72.80;98859.13;5094676;28;19912;-49
2022/08/31 01:46:22;;;;;;;;;;;;;;;23.31;72.59;98853.25;5095841;28;19912;-50
2022/08/31 01:48:48;;;;;;;;;;;;;;;23.44;72.55;98857.97;5094565;28;19935;-50
2022/08/31 01:51:16;;;;;;;;;;;;;;;23.57;72.43;98856.50;5096068;28;20369;-50
2022/08/31 01:53:43;;;;;;;;;;;;;;;23.76;72.62;98858.47;5094398;28;19912;-50
2022/08/31 01:56:13;;;;;;;;;;;;;;;24.01;72.50;98852.09;5094321;28;19916;-50
2022/08/31 01:58:39;;;;;;;;;;;;;;;24.27;71.70;98852.63;5095683;28;19912;-51
2022/08/31 02:01:05;;;;;;;;;;;;;;;24.46;71.49;98844.59;5095616;28;19919;-50
2022/08/31 02:03:30;;;;;;;;;;;;;;;24.66;70.66;98847.03;5095519;28;19912;-49
2022/08/31 02:05:56;;;;;;;;;;;;;;;24.85;70.07;98833.63;5095468;28;19934;-50
2022/08/31 02:08:21;;;;;;;;;;;;;;;24.98;67.65;98836.66;5094172;28;19916;-50
2022/08/31 02:10:46;;;;;;;;;;;;;;;25.06;67.23;98844.84;5094135;28;19915;-50
2022/08/31 02:13:12;;;;;;;;;;;;;;;24.94;66.99;98843.72;5095310;28;20376;-49
2022/08/31 02:15:37;;;;;;;;;;;;;;;24.54;66.83;98852.03;5095363;28;19965;-49
2022/08/31 02:18:03;;;;;;;;;;;;;;;24.15;67.26;98842.28;5093993;28;19912;-51
2022/08/31 02:20:29;;;;;;;;;;;;;;;23.74;67.89;98840.00;5095268;28;19939;-48
2022/08/31 02:22:54;;;;;;;;;;;;;;;23.48;69.40;98840.25;5095215;28;19919;-48
2022/08/31 02:25:20;;;;;;;;;;;;;;;23.71;69.85;98840.56;5095067;28;19922;-50
2022/08/31 02:27:46;;;;;;;;;;;;;;;23.78;69.55;98837.59;5095198;28;19919;-50
2022/08/31 02:30:14;;;;;;;;;;;;;;;23.71;70.25;98838.69;5093694;28;19922;-50
2022/08/31 02:32:39;;;;;;;;;;;;;;;23.70;70.59;98833.59;5094952;28;19918;-50
2022/08/31 02:35:05;;;;;;;;;;;;;;;23.57;70.21;98845.00;5094946;28;19912;-49
2022/08/31 02:37:31;;;;;;;;;;;;;;;23.56;70.46;98840.69;5094942;28;19943;-49
2022/08/31 02:39:56;;;;;;;;;;;;;;;23.59;70.17;98842.84;5094814;28;19912;-50
2022/08/31 02:42:22;;;;;;;;;;;;;;;23.64;70.49;98842.78;5093486;28;19965;-49
2022/08/31 02:44:47;;;;;;;;;;;;;;;23.78;70.00;98850.97;5095363;28;19969;-49
2022/08/31 02:47:13;;;;;;;;;;;;;;;23.75;69.45;98849.66;5094734;28;20377;-50
2022/08/31 02:49:41;;;;;;;;;;;;;;;23.74;70.08;98845.34;5094678;28;19923;-49
2022/08/31 02:52:07;;;;;;;;;;;;;;;23.81;69.86;98850.44;5094633;28;20297;-49
2022/08/31 02:54:32;;;;;;;;;;;;;;;23.76;69.67;98853.13;5093294;28;19912;-50
2022/08/31 02:56:58;;;;;;;;;;;;;;;23.67;69.79;98858.31;5094590;28;19916;-50
2022/08/31 02:59:23;;;;;;;;;;;;;;;23.65;70.29;98865.81;5094555;28;20414;-50
2022/08/31 03:01:52;;;;;;;;;;;;;;;23.52;70.41;98851.19;5094469;28;20100;-49
2022/08/31 03:04:18;;;;;;;;;;;;;;;23.71;70.96;98862.81;5093097;28;19919;-50
2022/08/31 03:06:44;;;;;;;;;;;;;;;24.01;70.39;98852.91;5093101;28;20302;-50
2022/08/31 03:09:09;;;;;;;;;;;;;;;24.28;69.69;98859.56;5092949;28;20391;-50
2022/08/31 03:11:34;;;;;;;;;;;;;;;24.46;68.96;98856.13;5094265;28;20002;-48
2022/08/31 03:14:00;;;;;;;;;;;;;;;24.67;68.40;98853.19;5092804;28;20428;-50
2022/08/31 03:16:25;;;;;;;;;;;;;;;24.86;67.33;98853.22;5092831;28;19916;-50
2022/08/31 03:18:51;;;;;;;;;;;;;;;24.87;66.97;98852.13;5092820;28;20393;-50
2022/08/31 03:21:16;;;;;;;;;;;;;;;24.41;66.27;98848.16;5094027;28;20421;-50
2022/08/31 03:23:42;;;;;;;;;;;;;;;23.80;67.36;98860.34;5092708;28;19919;-50
2022/08/31 03:26:07;;;;;;;;;;;;;;;23.28;68.30;98862.63;5093902;28;20293;-49
2022/08/31 03:28:34;;;;;;;;;;;;;;;23.23;69.92;98865.34;5093956;28;19912;-49
2022/08/31 03:31:00;;;;;;;;;;;;;;;23.20;69.63;98857.88;5093639;28;19916;-49
2022/08/31 03:33:28;;;;;;;;;;;;;;;23.34;70.44;98855.34;5092487;28;20355;-50
2022/08/31 03:35:54;;;;;;;;;;;;;;;23.61;69.42;98862.09;5092463;28;19920;-48
2022/08/31 03:38:19;;;;;;;;;;;;;;;23.60;69.08;98863.97;5093727;28;20305;-50
2022/08/31 03:40:45;;;;;;;;;;;;;;;23.68;69.43;98863.38;5093672;28;20389;-50
2022/08/31 03:43:11;;;;;;;;;;;;;;;23.81;69.45;98855.78;5093692;28;19912;-50
2022/08/31 03:45:37;;;;;;;;;;;;;;;24.03;69.69;98861.44;5093577;28;19941;-49
2022/08/31 03:48:05;;;;;;;;;;;;;;;24.36;69.65;98853.56;5092236;28;19912;-50
2022/08/31 03:50:31;;;;;;;;;;;;;;;24.51;69.07;98855.31;5093460;28;19912;-50
2022/08/31 03:52:57;;;;;;;;;;;;;;;24.66;68.87;98854.28;5093406;28;19911;-50
2022/08/31 03:55:22;;;;;;;;;;;;;;;24.86;67.88;98854.00;5092034;28;20011;-50
2022/08/31 03:57:50;;;;;;;;;;;;;;;25.02;67.39;98845.75;5093375;28;19916;-49
2022/08/31 04:00:16;;;;;;;;;;;;;;;24.88;67.11;98853.72;5093302;28;19919;-51
2022/08/31 04:02:42;;;;;;;;;;;;;;;24.55;67.65;98847.44;5093285;28;19920;-50
2022/08/31 04:05:08;;;;;;;;;;;;;;;24.24;67.73;98845.13;5091504;28;19981;-49
2022/08/31 04:07:37;;;;;;;;;;;;;;;24.16;68.26;98840.41;5093275;28;20343;-50
2022/08/31 04:10:02;;;;;;;;;;;;;;;24.23;68.10;98841.66;5091818;28;19919;-48
2022/08/31 04:12:28;;;;;;;;;;;;;;;24.33;67.73;98832.69;5093053;28;19912;-49
2022/08/31 04:14:54;;;;;;;;;;;;;;;24.36;67.92;98831.31;5093121;28;19923;-49
2022/08/31 04:17:19;;;;;;;;;;;;;;;24.34;68.07;98836.97;5093064;28;20371;-49
2022/08/31 04:19:45;;;;;;;;;;;;;;;24.25;68.17;98825.28;5093000;28;19955;-49
2022/08/31 04:22:10;;;;;;;;;;;;;;;24.11;68.51;98827.84;5092909;28;20006;-49
2022/08/31 04:24:35;;;;;;;;;;;;;;;24.12;68.73;98835.59;5091587;28;19919;-49
2022/08/31 04:27:01;;;;;;;;;;;;;;;24.20;67.89;98839.53;5092845;28;19977;-50
2022/08/31 04:29:26;;;;;;;;;;;;;;;24.27;67.92;98834.63;5091360;28;19919;-50
2022/08/31 04:31:52;;;;;;;;;;;;;;;24.30;67.62;98835.94;5092755;28;19943;-49
2022/08/31 04:34:17;;;;;;;;;;;;;;;24.30;67.95;98834.03;5091352;28;20140;-49
2022/08/31 04:36:46;;;;;;;;;;;;;;;24.33;68.00;98838.06;5091395;28;19912;-49
2022/08/31 04:39:13;;;;;;;;;;;;;;;24.36;67.08;98842.84;5092688;28;19919;-49
2022/08/31 04:41:39;;;;;;;;;;;;;;;24.42;66.38;98844.38;5092849;28;20293;-50
2022/08/31 04:44:06;;;;;;;;;;;;;;;24.44;66.27;98846.75;5091305;28;20393;-49
2022/08/31 04:46:32;;;;;;;;;;;;;;;24.17;66.24;98850.06;5091278;28;19912;-48
2022/08/31 04:48:57;;;;;;;;;;;;;;;23.95;66.97;98846.00;5091198;28;19923;-48
2022/08/31 04:51:25;;;;;;;;;;;;;;;23.84;66.63;98844.50;5092757;28;19916;-48
2022/08/31 04:53:51;;;;;;;;;;;;;;;23.68;66.82;98854.53;5092422;28;19918;-47
2022/08/31 04:56:27;;;;;;;;;;;;;;;23.42;67.10;98856.63;5092647;28;20003;-47
2022/08/31 04:59:12;;;;;;;;;;;;;;;23.33;67.97;98846.50;5091177;28;19919;-50
2022/08/31 05:01:39;;;;;;;;;;;;;;;23.34;68.09;98852.66;5092469;28;19922;-49
2022/08/31 05:04:05;;;;;;;;;;;;;;;23.35;68.04;98859.63;5092273;28;19916;-49
2022/08/31 05:06:31;;;;;;;;;;;;;;;23.33;68.21;98853.75;5091046;28;20007;-49
2022/08/31 05:08:59;;;;;;;;;;;;;;;23.40;68.51;98853.44;5092390;28;19916;-49
2022/08/31 05:11:25;;;;;;;;;;;;;;;23.63;68.58;98846.53;5092343;28;19912;-49
2022/08/31 05:13:51;;;;;;;;;;;;;;;23.83;68.52;98854.41;5092227;28;19912;-50
2022/08/31 05:16:17;;;;;;;;;;;;;;;23.94;67.90;98857.78;5092246;28;19916;-49
2022/08/31 05:18:43;;;;;;;;;;;;;;;24.05;67.93;98856.59;5095177;28;20286;-49
2022/08/31 05:21:19;;;;;;;;;;;;;;;24.10;66.78;98856.53;5096330;28;19918;-50
2022/08/31 05:23:46;;;;;;;;;;;;;;;24.06;67.07;98847.47;5096300;28;19916;-48
2022/08/31 05:26:15;;;;;;;;;;;;;;;24.16;67.03;98857.28;5096292;28;19912;-49
2022/08/31 05:28:41;;;;;;;;;;;;;;;24.31;66.67;98857.13;5096285;28;19971;-50
2022/08/31 05:31:06;;;;;;;;;;;;;;;24.40;65.62;98868.00;5094669;28;19931;-48
2022/08/31 05:33:32;;;;;;;;;;;;;;;24.42;65.80;98865.03;5096336;28;19912;-47
2022/08/31 05:36:00;;;;;;;;;;;;;;;24.42;65.99;98860.47;5096158;28;19916;-47
2022/08/31 05:38:25;;;;;;;;;;;;;;;24.42;66.18;98865.81;5096375;28;19981;-49
2022/08/31 05:40:52;;;;;;;;;;;;;;;24.42;65.96;98859.66;5096018;28;20385;-47
2022/08/31 05:43:17;;;;;;;;;;;;;;;24.33;65.81;98859.50;5094739;28;20014;-48
2022/08/31 05:45:43;;;;;;;;;;;;;;;24.18;65.75;98859.69;5095951;28;20424;-48
2022/08/31 05:48:08;;;;;;;;;;;;;;;24.19;65.89;98863.97;5095897;28;19918;-47
2022/08/31 05:50:35;;;;;;;;;;;;;;;24.29;66.05;98869.22;5095857;28;19912;-49
2022/08/31 05:53:00;;;;;;;;;;;;;;;24.24;65.33;98871.94;5094424;28;19911;-48
2022/08/31 05:55:26;;;;;;;;;;;;;;;24.11;65.56;98874.22;5095669;28;19965;-48
2022/08/31 05:57:51;;;;;;;;;;;;;;;24.16;65.80;98876.06;5094394;28;19911;-48
2022/08/31 06:00:17;;;;;;;;;;;;;;;24.22;65.70;98866.06;5095650;28;19938;-49
2022/08/31 06:02:42;;;;;;;;;;;;;;;24.26;65.88;98861.72;5095644;28;19989;-48
2022/08/31 06:05:08;;;;;;;;;;;;;;;24.28;65.09;98856.88;5095877;28;19944;-48
2022/08/31 06:07:33;;;;;;;;;;;;;;;24.27;65.49;98849.94;5094232;28;19912;-50
2022/08/31 06:10:00;;;;;;;;;;;;;;;24.31;64.84;98849.06;5095525;28;19912;-49
2022/08/31 06:12:26;;;;;;;;;;;;;;;24.35;64.59;98843.13;5095426;28;19915;-48
2022/08/31 06:14:52;;;;;;;;;;;;;;;24.42;64.80;98838.22;5094154;28;20302;-48
2022/08/31 06:17:18;;;;;;;;;;;;;;;24.43;64.59;98842.50;5095308;28;19923;-48
2022/08/31 06:19:43;;;;;;;;;;;;;;;24.35;64.91;98851.97;5095357;28;20039;-47
2022/08/31 06:22:09;;;;;;;;;;;;;;;24.30;64.53;98846.66;5095222;28;19912;-49
2022/08/31 06:24:37;;;;;;;;;;;;;;;24.39;64.43;98855.69;5095163;28;20300;-48
2022/08/31 06:27:04;;;;;;;;;;;;;;;24.51;63.84;98856.09;5095141;28;19912;-48
2022/08/31 06:29:30;;;;;;;;;;;;;;;24.70;63.05;98849.94;5094572;28;19962;-48
2022/08/31 06:31:56;;;;;;;;;;;;;;;24.77;62.86;98846.88;5095096;28;19912;-50
2022/08/31 06:34:23;;;;;;;;;;;;;;;24.76;62.91;98842.63;5093690;28;19919;-49
2022/08/31 06:36:49;;;;;;;;;;;;;;;24.92;62.77;98841.31;5094991;28;20006;-50
2022/08/31 06:39:15;;;;;;;;;;;;;;;25.33;61.86;98839.91;5094953;28;19959;-47
2022/08/31 06:41:40;;;;;;;;;;;;;;;25.68;61.33;98852.75;5093630;28;19951;-47
2022/08/31 06:44:09;;;;;;;;;;;;;;;25.85;60.73;98851.38;5095115;28;19971;-50
2022/08/31 06:46:36;;;;;;;;;;;;;;;25.88;60.28;98856.16;5094792;28;19912;-49
2022/08/31 06:49:03;;;;;;;;;;;;;;;25.96;59.92;98847.44;5094762;28;19912;-48
2022/08/31 06:51:35;;;;;;;;;;;;;;;26.00;58.26;98836.88;5093359;28;20356;-48
2022/08/31 06:54:01;;;;;;;;;;;;;;;26.05;58.11;98844.84;5094635;28;19912;-47
2022/08/31 06:56:26;;;;;;;;;;;;;;;26.00;57.57;98843.06;5094582;28;20002;-49
2022/08/31 06:58:53;;;;;;;;;;;;;;;25.95;58.29;98837.75;5094846;28;19999;-47
2022/08/31 07:01:20;;;;;;;;;;;;;;;26.02;58.21;98827.41;5094441;28;19969;-48
2022/08/31 07:03:47;;;;;;;;;;;;;;;26.21;58.22;98824.63;5094455;28;20394;-49
2022/08/31 07:06:19;;;;;;;;;;;;;;;26.15;57.51;98822.34;5094430;28;19915;-48
2022/08/31 07:08:45;;;;;;;;;;;;;;;25.94;57.69;98827.31;5094637;28;20373;-47
2022/08/31 07:11:16;;;;;;;;;;;;;;;26.03;57.75;98829.00;5093019;28;19912;-50
2022/08/31 07:13:41;;;;;;;;;;;;;;;26.03;57.69;98825.53;5094150;28;19912;-48
2022/08/31 07:16:08;;;;;;;;;;;;;;;26.00;56.90;98836.88;5094468;28;19920;-48
2022/08/31 07:18:34;;;;;;;;;;;;;;;25.95;57.88;98834.28;5094198;28;19912;-48
2022/08/31 07:21:13;;;;;;;;;;;;;;;25.93;57.43;98841.84;5092758;28;19916;-47
2022/08/31 07:23:40;;;;;;;;;;;;;;;25.89;57.68;98849.69;5094034;28;19918;-49
2022/08/31 07:26:14;;;;;;;;;;;;;;;25.90;56.41;98837.88;5092724;28;19912;-49
2022/08/31 07:28:42;;;;;;;;;;;;;;;25.88;56.12;98831.97;5094046;28;19919;-48
2022/08/31 07:31:08;;;;;;;;;;;;;;;25.94;55.94;98833.50;5093578;28;19931;-48
2022/08/31 07:33:37;;;;;;;;;;;;;;;26.01;56.40;98833.88;5093829;28;19912;-50
2022/08/31 07:36:04;;;;;;;;;;;;;;;26.10;56.71;98831.31;5093815;28;19912;-49
2022/08/31 07:43:58;;;;;;;;;;;;;;;26.18;55.35;98837.84;5094045;28;19986;-50
2022/08/31 07:46:28;;;;;;;;;;;;;;;26.11;55.64;98833.69;5093650;28;19966;-48
2022/08/31 07:48:55;;;;;;;;;;;;;;;26.26;55.92;98829.13;5093833;28;19919;-48
2022/08/31 07:51:22;;;;;;;;;;;;;;;26.43;55.84;98840.03;5093522;28;19912;-49
2022/08/31 07:53:48;;;;;;;;;;;;;;;26.69;55.04;98836.84;5093703;28;19982;-48
2022/08/31 07:56:15;;;;;;;;;;;;;;;27.01;54.73;98845.81;5093540;28;20388;-48
2022/08/31 07:58:41;;;;;;;;;;;;;;;27.41;54.00;98843.28;5093412;28;19990;-49
2022/08/31 08:01:07;;;;;;;;;;;;;;;27.81;52.88;98846.00;5093618;28;20045;-49
2022/08/31 08:03:32;;;;;;;;;;;;;;;27.96;52.26;98848.34;5093356;28;20006;-48
2022/08/31 08:05:58;;;;;;;;;;;;;;;27.94;51.62;98844.38;5093220;28;19918;-49
2022/08/31 08:08:23;;;;;;;;;;;;;;;27.84;51.42;98845.41;5093252;28;19958;-49
2022/08/31 08:10:49;;;;;;;;;;;;;;;27.75;51.89;98844.56;5091866;28;19957;-49
2022/08/31 08:13:18;;;;;;;;;;;;;;;27.76;51.70;98846.16;5093060;28;19923;-49
2022/08/31 08:15:44;;;;;;;;;;;;;;;27.59;51.92;98842.28;5093080;28;19919;-48
2022/08/31 08:18:12;;;;;;;;;;;;;;;27.27;52.09;98837.97;5093097;28;19916;-47
2022/08/31 08:20:38;;;;;;;;;;;;;;;26.96;52.48;98840.53;5092968;28;19915;-48
2022/08/31 08:23:10;;;;;;;;;;;;;;;26.77;52.83;98838.03;5092930;28;20453;-47
2022/08/31 08:25:35;;;;;;;;;;;;;;;26.82;53.49;98841.41;5093291;28;20285;-48
2022/08/31 08:28:01;;;;;;;;;;;;;;;26.85;53.18;98840.78;5091575;28;19916;-48
2022/08/31 08:30:26;;;;;;;;;;;;;;;26.92;52.43;98847.63;5092563;28;19916;-49
2022/08/31 08:32:52;;;;;;;;;;;;;;;26.90;52.79;98842.53;5092769;28;19957;-49
2022/08/31 08:35:17;;;;;;;;;;;;;;;27.07;53.08;98845.38;5092714;28;19916;-50
2022/08/31 08:37:46;;;;;;;;;;;;;;;27.23;51.82;98851.25;5092722;28;19923;-50
2022/08/31 08:40:20;;;;;;;;;;;;;;;27.37;51.84;98853.09;5092638;28;20003;-50
2022/08/31 08:42:45;;;;;;;;;;;;;;;27.60;51.92;98848.44;5092973;28;20365;-50
2022/08/31 08:45:11;;;;;;;;;;;;;;;27.81;51.10;98852.22;5091257;28;19923;-50
2022/08/31 08:47:37;;;;;;;;;;;;;;;27.80;50.00;98853.31;5092528;28;19940;-49
2022/08/31 08:50:05;;;;;;;;;;;;;;;27.73;50.04;98857.56;5091202;28;19961;-48
2022/08/31 08:52:40;;;;;;;;;;;;;;;27.77;50.46;98864.72;5092382;28;20446;-49
2022/08/31 08:55:17;;;;;;;;;;;;;;;27.77;50.59;98858.53;5092435;28;19919;-50
2022/08/31 08:57:44;;;;;;;;;;;;;;;27.91;50.26;98866.56;5092455;28;19923;-50
2022/08/31 09:00:15;;;;;;;;;;;;;;;28.07;50.27;98867.72;5092391;28;20392;-50
2022/08/31 09:02:41;;;;;;;;;;;;;;;28.15;49.52;98868.88;5091000;28;19916;-48
2022/08/31 09:05:33;;;;;;;;;;;;;;;27.88;49.66;98865.28;5091029;28;19926;-48
2022/08/31 09:08:22;;;;;;;;;;;;;;;27.86;49.93;98870.94;5092298;28;20400;-49
2022/08/31 09:11:13;;;;;;;;;;;;;;;27.87;49.85;98869.09;5071723;28;19969;-48
2022/08/31 09:14:05;;;;;;;;;;;;;;;28.41;49.20;98856.25;5092571;28;20349;-50
2022/08/31 09:16:49;;;;;;;;;;;;;;;28.98;48.08;98854.59;5072295;28;19912;-49
2022/08/31 09:19:16;;;;;;;;;;;;;;;28.98;46.37;98852.69;5092211;28;19955;-48
2022/08/31 09:21:44;;;;;;;;;;;;;;;28.98;46.51;98849.19;5092212;28;19912;-49
2022/08/31 09:24:11;;;;;;;;;;;;;;;29.13;46.32;98850.66;5090989;28;19961;-49
2022/08/31 09:26:55;;;;;;;;;;;;;;;29.96;45.53;98847.59;5092161;28;20408;-47
2022/08/31 09:29:23;;;;;;;;;;;;;;;31.31;43.13;98846.84;5092146;28;20377;-49
2022/08/31 09:31:58;;;;;;;;;;;;;;;31.82;42.21;98842.81;5091008;28;20339;-49
2022/08/31 09:34:29;;;;;;;;;;;;;;;31.85;41.91;98841.34;5091230;28;19912;-47
2022/08/31 09:37:15;;;;;;;;;;;;;;;31.53;41.33;98843.81;5091220;28;19912;-48
2022/08/31 09:39:41;;;;;;;;;;;;;;;31.35;42.13;98828.78;5091053;28;20015;-47
2022/08/31 09:42:13;;;;;;;;;;;;;;;32.25;41.97;98821.69;5090103;28;20361;-49
2022/08/31 09:44:40;;;;;;;;;;;;;;;33.86;39.57;98814.44;5091108;28;19918;-49
2022/08/31 09:47:13;;;;;;;;;;;;;;;34.05;37.60;98819.19;5091103;28;19912;-50
2022/08/31 09:49:39;;;;;;;;;;;;;;;34.67;36.86;98819.44;5091103;28;19961;-48
2022/08/31 09:52:16;;;;;;;;;;;;;;;35.02;35.55;98818.53;5090969;28;19916;-49
2022/08/31 09:57:56;;;;;;;;;;;;;;;35.59;34.49;98810.59;5091379;28;19922;-50
2022/08/31 10:00:33;;;;;;;;;;;;;;;35.07;34.75;98804.59;5091018;28;19912;-49
2022/08/31 10:03:07;;;;;;;;;;;;;;;35.17;35.81;98800.53;5092027;28;19920;-49
2022/08/31 10:05:42;;;;;;;;;;;;;;;35.55;35.50;98788.69;5094360;28;19923;-49
2022/08/31 10:08:20;;;;;;;;;;;;;;;35.82;34.74;98791.50;5094618;28;19942;-50
2022/08/31 10:10:48;;;;;;;;;;;;;;;36.06;34.19;98776.66;5094299;28;19912;-48
2022/08/31 10:13:18;;;;;;;;;;;;;;;37.64;32.91;98769.44;5092919;28;19972;-48
2022/08/31 10:15:52;;;;;;;;;;;;;;;39.08;30.80;98766.22;5094208;28;19962;-50
2022/08/31 10:18:31;;;;;;;;;;;;;;;39.91;29.59;98753.28;5094149;28;19959;-50
2022/08/31 10:21:06;;;;;;;;;;;;;;;39.72;28.65;98754.47;5093030;28;19912;-52
2022/08/31 10:23:40;;;;;;;;;;;;;;;39.79;28.58;98750.16;5094052;28;19912;-52
2022/08/31 10:26:15;;;;;;;;;;;;;;;40.19;28.34;98754.38;5093978;28;19912;-52
2022/08/31 10:28:53;;;;;;;;;;;;;;;40.65;28.36;98747.13;5094016;28;19916;-52
2022/08/31 10:31:44;;;;;;;;;;;;;;;40.67;26.73;98748.28;5042156;28;1493382;-53
2022/08/31 10:37:06;;;;;;;;;;;;;;;37.76;28.85;98741.75;5095616;28;19938;-50
2022/08/31 10:39:52;;;;;;;;;;;;;;;36.85;30.00;98738.59;5095224;28;19911;-49
2022/08/31 10:42:25;;;;;;;;;;;;;;;37.06;29.43;98738.78;5094450;28;19926;-48
2022/08/31 10:44:56;;;;;;;;;;;;;;;37.94;28.23;98739.09;5094924;28;19962;-49
2022/08/31 10:47:24;;;;;;;;;;;;;;;38.81;27.18;98726.56;5094915;28;19999;-49
2022/08/31 10:49:56;;;;;;;;;;;;;;;38.67;26.73;98725.34;5094682;28;20405;-50
2022/08/31 10:52:28;;;;;;;;;;;;;;;38.13;27.17;98727.09;5093380;28;19919;-49
2022/08/31 10:54:56;;;;;;;;;;;;;;;37.63;27.61;98721.28;5094711;28;19915;-50
2022/08/31 10:57:36;;;;;;;;;;;;;;;37.30;28.06;98729.25;5094609;28;19912;-48
2022/08/31 11:00:40;;;;;;;;;;;;;;;37.32;29.00;98723.41;5094558;28;19912;-48
2022/08/31 11:03:09;;;;;;;;;;;;;;;36.69;29.16;98722.41;5092811;28;19955;-48
2022/08/31 11:05:41;;;;;;;;;;;;;;;36.27;29.63;98721.50;5094696;28;20262;-50
2022/08/31 11:08:11;;;;;;;;;;;;;;;36.41;30.33;98725.56;5093464;28;20332;-50
2022/08/31 11:10:46;;;;;;;;;;;;;;;37.25;29.75;98710.44;5094584;28;19919;-48
2022/08/31 11:13:26;;;;;;;;;;;;;;;36.83;29.24;98713.56;5093015;28;20002;-50
2022/08/31 11:15:52;;;;;;;;;;;;;;;36.56;29.65;98713.63;5093490;28;19912;-49
2022/08/31 11:18:34;;;;;;;;;;;;;;;36.73;29.47;98704.88;5094177;28;19916;-48
2022/08/31 11:21:16;;;;;;;;;;;;;;;36.72;28.33;98702.50;5094195;28;19938;-49
2022/08/31 11:23:41;;;;;;;;;;;;;;;36.22;28.77;98697.22;5092761;28;19916;-50
2022/08/31 11:26:09;;;;;;;;;;;;;;;36.18;29.72;98689.00;5094071;28;20018;-49
2022/08/31 11:28:47;;;;;;;;;;;;;;;36.87;28.80;98682.34;5094009;28;19912;-48
2022/08/31 11:31:22;;;;;;;;;;;;;;;37.85;27.16;98672.91;5093752;28;19981;-49
2022/08/31 11:33:49;;;;;;;;;;;;;;;38.00;26.24;98669.06;5093757;28;19915;-50
2022/08/31 11:36:36;;;;;;;;;;;;;;;38.61;25.74;98669.28;5093832;28;19992;-49
2022/08/31 11:39:02;;;;;;;;;;;;;;;39.96;25.02;98677.09;5086714;28;19920;-52
2022/08/31 11:41:54;;;;;;;;;;;;;;;40.92;23.75;98671.06;5093763;28;19915;-51
2022/08/31 11:44:28;;;;;;;;;;;;;;;41.41;23.42;98651.78;5091572;28;19919;-53
2022/08/31 11:47:13;;;;;;;;;;;;;;;41.21;23.37;98654.31;5093661;28;19923;-51
2022/08/31 11:49:38;;;;;;;;;;;;;;;40.19;23.32;98638.91;5093610;28;19920;-52
2022/08/31 11:52:09;;;;;;;;;;;;;;;39.89;23.87;98631.97;5093584;28;19966;-52
2022/08/31 11:54:47;;;;;;;;;;;;;;;39.83;24.13;98633.53;5093510;28;20363;-52
2022/08/31 11:57:22;;;;;;;;;;;;;;;39.70;24.39;98638.69;5093588;28;19916;-51
2022/08/31 11:59:49;;;;;;;;;;;;;;;39.99;24.36;98627.59;5093393;28;19922;-52
2022/08/31 12:02:24;;;;;;;;;;;;;;;40.50;23.62;98622.63;5093328;28;20356;-52
2022/08/31 12:04:57;;;;;;;;;;;;;;;40.45;23.38;98607.34;5093300;28;19912;-52
2022/08/31 12:07:35;;;;;;;;;;;;;;;39.77;24.06;98628.84;5093518;28;19957;-52
2022/08/31 12:10:16;;;;;;;;;;;;;;;39.85;24.41;98633.13;5093438;28;19935;-51
2022/08/31 12:13:06;;;;;;;;;;;;;;;40.28;24.31;98632.94;5093394;28;19939;-50
2022/08/31 12:15:42;;;;;;;;;;;;;;;39.76;24.24;98625.31;5093074;28;19912;-51
2022/08/31 12:18:28;;;;;;;;;;;;;;;39.81;24.30;98624.91;5093147;28;19916;-52
2022/08/31 12:24:07;;;;;;;;;;;;;;;37.68;25.23;98622.34;5093016;28;20000;-49
2022/08/31 12:26:45;;;;;;;;;;;;;;;36.88;26.60;98615.50;5092499;28;19998;-48
2022/08/31 12:29:26;;;;;;;;;;;;;;;36.45;27.23;98619.78;5092928;28;19912;-49
2022/08/31 12:32:07;;;;;;;;;;;;;;;35.96;28.22;98613.34;5093064;28;19920;-50
2022/08/31 12:34:35;;;;;;;;;;;;;;;35.93;28.68;98611.38;5092757;28;20022;-49
2022/08/31 12:37:16;;;;;;;;;;;;;;;36.14;28.25;98610.81;5092805;28;19912;-49
2022/08/31 12:39:41;;;;;;;;;;;;;;;36.25;27.99;98605.53;5091469;28;19919;-49
2022/08/31 12:42:09;;;;;;;;;;;;;;;36.43;27.03;98611.97;5091418;28;19911;-50
2022/08/31 12:44:43;;;;;;;;;;;;;;;36.43;27.28;98602.97;5092968;28;20381;-48
2022/08/31 12:47:19;;;;;;;;;;;;;;;36.17;27.37;98610.13;5092627;28;19922;-48
2022/08/31 12:49:51;;;;;;;;;;;;;;;35.79;27.71;98610.03;5092617;28;19919;-50
2022/08/31 12:52:35;;;;;;;;;;;;;;;36.15;27.92;98593.31;5092564;28;20387;-49
2022/08/31 12:55:11;;;;;;;;;;;;;;;37.22;27.06;98601.72;5091186;28;20002;-48
2022/08/31 12:57:44;;;;;;;;;;;;;;;37.94;25.75;98600.16;5092475;28;20336;-49
2022/08/31 13:00:16;;;;;;;;;;;;;;;38.35;26.00;98599.91;5092450;28;19942;-49
2022/08/31 13:02:46;;;;;;;;;;;;;;;38.49;25.23;98592.84;5092326;28;19939;-48
2022/08/31 13:05:14;;;;;;;;;;;;;;;38.55;24.74;98578.38;5091034;28;19916;-49
2022/08/31 13:07:40;;;;;;;;;;;;;;;38.41;23.93;98570.13;5092341;28;19912;-49
2022/08/31 13:10:05;;;;;;;;;;;;;;;38.13;24.08;98573.59;5092546;28;19918;-49
2022/08/31 13:12:31;;;;;;;;;;;;;;;37.65;24.39;98571.88;5092295;28;19947;-50
2022/08/31 13:14:56;;;;;;;;;;;;;;;37.32;25.02;98573.63;5092241;28;19995;-49
2022/08/31 13:17:22;;;;;;;;;;;;;;;36.89;25.21;98576.06;5092247;28;20302;-49